Time;durP1;ratioP1;P1;durP2;ratioP2;P2;SDS_P1;SDS_P2;PMS_P1;PMS_P2;Temp;Humidity;BMP_temperature;BMP_pressure;BME280_temperature;BME280_humidity;BME280_pressure;Samples;Min_cycle;Max_cycle;Signal;HPM_P1;HPM_P2
2023/02/21 02:15:10;;;;;;;12.55;9.63;;;12.80;96.70;;;;;;4994332;28;20045;-74
2023/02/21 02:17:51;;;;;;;14.93;11.02;;;12.80;96.70;;;;;;5014829;28;20054;-75
2023/02/21 02:20:51;;;;;;;13.25;9.65;;;12.80;96.70;;;;;;5006454;28;20503;-75
2023/02/21 02:23:54;;;;;;;14.55;9.98;;;12.80;96.70;;;;;;5022429;28;20160;-75
2023/02/21 02:26:50;;;;;;;14.18;10.32;;;12.80;96.70;;;;;;5003368;28;20610;-75
2023/02/21 02:29:43;;;;;;;11.13;10.02;;;12.90;96.70;;;;;;5001788;28;20057;-75
2023/02/21 02:32:36;;;;;;;13.23;10.57;;;12.90;96.70;;;;;;5014107;28;20145;-75
2023/02/21 02:35:12;;;;;;;13.68;10.32;;;12.80;96.70;;;;;;5042777;28;20052;-75
2023/02/21 02:37:47;;;;;;;12.32;9.70;;;12.80;96.70;;;;;;5039677;28;20575;-75
2023/02/21 02:40:23;;;;;;;13.55;9.93;;;12.90;96.70;;;;;;5038670;28;20126;-76
2023/02/21 02:43:02;;;;;;;12.30;10.40;;;12.90;96.70;;;;;;5033781;28;20052;-75
2023/02/21 02:45:35;;;;;;;13.60;9.70;;;13.00;96.70;;;;;;5020828;28;20140;-75
2023/02/21 02:48:13;;;;;;;12.70;9.60;;;13.00;96.70;;;;;;5037107;28;20114;-75
2023/02/21 02:50:47;;;;;;;11.90;9.73;;;12.90;96.70;;;;;;5059540;28;20053;-75
2023/02/21 02:53:18;;;;;;;11.27;9.63;;;13.00;96.70;;;;;;5036622;28;20150;-75
2023/02/21 02:55:51;;;;;;;11.23;9.60;;;13.00;96.70;;;;;;5038482;28;20047;-72
2023/02/21 02:58:21;;;;;;;11.57;10.10;;;13.00;96.70;;;;;;5035623;28;20049;-72
2023/02/21 03:01:02;;;;;;;13.23;10.73;;;12.90;96.70;;;;;;5052044;28;20048;-73
2023/02/21 03:03:57;;;;;;;13.32;9.68;;;12.90;96.70;;;;;;5044853;28;20505;-73
2023/02/21 03:06:35;;;;;;;12.10;9.80;;;12.90;96.70;;;;;;5036439;28;20426;-73
2023/02/21 03:09:11;;;;;;;14.70;9.65;;;12.90;96.70;;;;;;5046016;28;20049;-73
2023/02/21 03:11:51;;;;;;;12.65;10.32;;;12.90;96.70;;;;;;5064363;28;20044;-73
2023/02/21 03:14:22;;;;;;;12.27;9.88;;;12.80;96.70;;;;;;5044969;28;20081;-72
2023/02/21 03:16:54;;;;;;;11.65;9.93;;;12.80;96.70;;;;;;5035820;28;20052;-75
2023/02/21 03:19:26;;;;;;;13.48;10.38;;;12.80;96.70;;;;;;5037096;28;20050;-75
2023/02/21 03:22:00;;;;;;;10.73;9.50;;;12.80;96.70;;;;;;5056254;28;20411;-75
2023/02/21 03:24:28;;;;;;;12.70;10.13;;;12.90;96.70;;;;;;5035473;28;20056;-72
2023/02/21 03:27:01;;;;;;;11.45;9.20;;;12.90;96.70;;;;;;5037720;28;20055;-72
2023/02/21 03:29:59;;;;;;;10.55;9.15;;;12.80;96.70;;;;;;5007353;28;20471;-73
2023/02/21 03:35:02;;;;;;;10.68;8.80;;;12.80;96.70;;;;;;5039107;28;20084;-73
2023/02/21 03:37:35;;;;;;;13.13;9.55;;;12.80;96.70;;;;;;5028579;28;20067;-73
2023/02/21 03:40:04;;;;;;;13.13;9.40;;;12.80;96.70;;;;;;5020680;28;20159;-73
2023/02/21 03:42:33;;;;;;;11.93;9.15;;;12.80;96.70;;;;;;5032341;28;20158;-73
2023/02/21 03:45:02;;;;;;;10.93;9.02;;;12.80;96.70;;;;;;5036670;28;20051;-73
2023/02/21 03:47:31;;;;;;;14.20;10.13;;;12.80;96.70;;;;;;5029666;28;20139;-73
2023/02/21 03:49:59;;;;;;;13.43;10.02;;;12.80;96.70;;;;;;5015386;28;20132;-73
2023/02/21 03:52:27;;;;;;;10.75;8.98;;;12.80;96.70;;;;;;5009968;28;20060;-73
2023/02/21 03:54:56;;;;;;;12.98;8.75;;;12.70;96.70;;;;;;5032772;28;20033;-75
2023/02/21 03:57:25;;;;;;;12.20;9.80;;;12.70;96.70;;;;;;5042080;28;20049;-75
2023/02/21 03:59:53;;;;;;;11.85;9.48;;;12.70;96.70;;;;;;5035383;28;20399;-76
2023/02/21 04:02:21;;;;;;;12.60;10.27;;;12.70;96.70;;;;;;5030522;28;20143;-75
2023/02/21 04:04:50;;;;;;;16.25;10.15;;;12.70;96.70;;;;;;5032948;28;20044;-75
2023/02/21 04:07:23;;;;;;;12.07;9.05;;;12.60;96.70;;;;;;5045754;28;20156;-72
2023/02/21 04:09:51;;;;;;;12.23;9.23;;;12.60;96.70;;;;;;5054151;28;20037;-72
2023/02/21 04:12:27;;;;;;;12.63;9.32;;;12.70;96.70;;;;;;5045523;28;20071;-73
2023/02/21 04:14:57;;;;;;;11.70;9.38;;;12.70;96.70;;;;;;5028348;28;20582;-72
2023/02/21 04:17:25;;;;;;;10.52;9.07;;;12.70;96.70;;;;;;5028356;28;20041;-72
2023/02/21 04:19:55;;;;;;;12.50;9.80;;;12.70;96.70;;;;;;5024675;28;20099;-72
2023/02/21 04:22:24;;;;;;;11.90;9.30;;;12.70;96.70;;;;;;5033212;28;20500;-73
2023/02/21 04:24:53;;;;;;;13.82;10.55;;;12.70;96.70;;;;;;5035544;28;20608;-73
2023/02/21 04:27:42;;;;;;;11.48;8.77;;;12.70;96.70;;;;;;5023598;28;20053;-75
2023/02/21 04:30:11;;;;;;;13.02;9.55;;;12.70;96.70;;;;;;5024037;28;20148;-75
2023/02/21 04:32:39;;;;;;;13.43;9.40;;;12.80;96.70;;;;;;5044292;28;20116;-75
2023/02/21 04:35:11;;;;;;;11.82;9.20;;;12.80;96.70;;;;;;5037577;28;20545;-75
2023/02/21 04:37:43;;;;;;;12.90;10.10;;;12.80;96.70;;;;;;5040797;28;20059;-75
2023/02/21 04:40:13;;;;;;;12.23;9.70;;;12.80;96.70;;;;;;5025387;28;20045;-75
2023/02/21 04:42:42;;;;;;;10.68;8.90;;;12.80;96.70;;;;;;5027038;28;20109;-75
2023/02/21 04:45:10;;;;;;;10.50;9.25;;;12.80;96.70;;;;;;5037563;28;20076;-75
2023/02/21 04:47:38;;;;;;;11.18;8.43;;;12.70;96.70;;;;;;5012210;28;20579;-75
2023/02/21 04:50:07;;;;;;;13.38;10.15;;;12.70;96.70;;;;;;5048464;28;20040;-74
2023/02/21 04:52:35;;;;;;;11.80;9.70;;;12.60;96.70;;;;;;5050152;28;20410;-74
2023/02/21 04:55:03;;;;;;;12.95;9.65;;;12.70;96.70;;;;;;5054625;28;20040;-75
2023/02/21 04:57:31;;;;;;;14.73;9.23;;;12.70;96.70;;;;;;5052766;28;20033;-73
2023/02/21 05:00:06;;;;;;;12.15;9.88;;;12.70;96.70;;;;;;5047545;28;20073;-72
2023/02/21 05:02:34;;;;;;;12.02;9.73;;;12.70;96.70;;;;;;5054999;28;20060;-72
2023/02/21 05:05:02;;;;;;;11.02;9.45;;;12.70;96.70;;;;;;5056443;28;20045;-73
2023/02/21 05:07:30;;;;;;;12.65;10.07;;;12.70;96.70;;;;;;5054164;28;20049;-72
2023/02/21 05:09:58;;;;;;;13.23;10.38;;;12.60;96.70;;;;;;5035080;28;20039;-73
2023/02/21 05:12:26;;;;;;;14.15;11.25;;;12.60;96.70;;;;;;5025583;28;20052;-72
2023/02/21 05:14:54;;;;;;;15.07;11.20;;;12.60;96.70;;;;;;5014776;28;20041;-72
2023/02/21 05:17:24;;;;;;;13.88;11.50;;;12.60;96.70;;;;;;5039735;28;20063;-73
2023/02/21 05:19:53;;;;;;;15.50;12.40;;;12.60;96.70;;;;;;5045310;28;20685;-73
2023/02/21 05:22:21;;;;;;;17.70;12.80;;;12.60;96.70;;;;;;5007487;28;20068;-75
2023/02/21 05:24:49;;;;;;;15.90;12.52;;;12.60;96.70;;;;;;5042435;28;20060;-75
2023/02/21 05:27:19;;;;;;;16.98;13.75;;;12.60;96.70;;;;;;5058543;28;20044;-75
2023/02/21 05:29:48;;;;;;;18.00;14.65;;;12.60;96.70;;;;;;5021855;28;20550;-76
2023/02/21 05:32:17;;;;;;;17.30;14.77;;;12.60;96.70;;;;;;5045756;28;20045;-75
2023/02/21 05:34:46;;;;;;;18.38;14.27;;;12.50;96.70;;;;;;5051036;28;20530;-74
2023/02/21 05:37:16;;;;;;;16.35;14.05;;;12.50;96.70;;;;;;5032596;28;20044;-75
2023/02/21 05:39:44;;;;;;;16.73;12.90;;;12.50;96.70;;;;;;5046984;28;20684;-75
2023/02/21 05:42:12;;;;;;;14.25;12.13;;;12.60;96.70;;;;;;5047864;28;20102;-75
2023/02/21 05:44:42;;;;;;;13.90;11.48;;;12.60;96.70;;;;;;5041027;28;20045;-75
2023/02/21 05:47:10;;;;;;;17.42;13.38;;;12.60;96.70;;;;;;5053090;28;20536;-76
2023/02/21 05:49:39;;;;;;;15.13;11.10;;;12.60;96.70;;;;;;5046048;28;20561;-74
2023/02/21 05:52:11;;;;;;;15.48;11.00;;;12.60;96.70;;;;;;5043761;28;20056;-75
2023/02/21 05:54:39;;;;;;;11.60;9.93;;;12.60;96.70;;;;;;5044828;28;20115;-75
2023/02/21 05:57:07;;;;;;;11.75;10.48;;;12.50;96.70;;;;;;5042607;28;20049;-73
2023/02/21 05:59:36;;;;;;;13.75;10.10;;;12.50;96.70;;;;;;5040807;28;20136;-73
2023/02/21 06:02:04;;;;;;;11.07;9.40;;;12.50;96.70;;;;;;5038521;28;20055;-73
2023/02/21 06:04:32;;;;;;;13.23;10.13;;;12.40;96.70;;;;;;5029755;28;20494;-73
2023/02/21 06:06:59;;;;;;;11.25;9.38;;;12.50;96.70;;;;;;5048088;28;20045;-73
2023/02/21 06:09:29;;;;;;;12.82;9.63;;;12.50;96.70;;;;;;5062777;28;20589;-73
2023/02/21 06:11:57;;;;;;;11.35;9.77;;;12.40;96.70;;;;;;5055213;28;20067;-73
2023/02/21 06:14:25;;;;;;;14.30;9.77;;;12.40;96.70;;;;;;5043307;28;20046;-72
2023/02/21 06:16:53;;;;;;;11.13;9.80;;;12.40;96.70;;;;;;5035805;28;20044;-73
2023/02/21 06:19:21;;;;;;;10.60;8.90;;;12.30;96.70;;;;;;5063025;28;20070;-73
2023/02/21 06:21:49;;;;;;;10.63;8.52;;;12.30;96.70;;;;;;5058527;28;20498;-73
2023/02/21 06:24:17;;;;;;;15.73;10.48;;;12.20;96.70;;;;;;5030404;28;20044;-73
2023/02/21 06:26:47;;;;;;;12.70;9.75;;;12.20;96.70;;;;;;5047202;28;20036;-75
2023/02/21 06:29:15;;;;;;;11.35;9.45;;;12.20;96.70;;;;;;5051439;28;20052;-73
2023/02/21 06:31:43;;;;;;;14.50;9.95;;;12.20;96.70;;;;;;5031512;28;20056;-73
2023/02/21 06:34:11;;;;;;;11.32;10.10;;;12.20;96.70;;;;;;5035083;28;20044;-72
2023/02/21 06:36:38;;;;;;;12.75;9.32;;;12.20;96.70;;;;;;5041017;28;20044;-73
2023/02/21 06:39:07;;;;;;;13.95;9.00;;;12.30;96.70;;;;;;5058167;28;20526;-72
2023/02/21 06:41:34;;;;;;;10.82;9.40;;;12.30;96.70;;;;;;5043881;28;20436;-73
2023/02/21 06:44:04;;;;;;;13.73;9.77;;;12.30;96.70;;;;;;5052724;28;20041;-73
2023/02/21 06:46:35;;;;;;;11.88;10.05;;;12.30;96.70;;;;;;5048640;28;20037;-73
2023/02/21 06:49:03;;;;;;;10.32;8.77;;;12.30;96.70;;;;;;5051976;28;20052;-73
2023/02/21 06:51:34;;;;;;;12.10;9.57;;;12.30;96.70;;;;;;5048807;28;20068;-73
2023/02/21 06:54:02;;;;;;;12.10;9.13;;;12.30;96.70;;;;;;5035466;28;20819;-73
2023/02/21 06:56:30;;;;;;;11.68;9.82;;;12.30;96.70;;;;;;5044408;28;20078;-73
2023/02/21 06:58:58;;;;;;;14.73;10.50;;;12.30;96.70;;;;;;5042370;28;20051;-72
2023/02/21 07:01:29;;;;;;;12.10;9.85;;;12.30;96.70;;;;;;5063371;28;20071;-75
2023/02/21 07:03:58;;;;;;;13.13;10.70;;;12.30;96.70;;;;;;5028651;28;20059;-76
2023/02/21 07:06:25;;;;;;;14.63;11.63;;;12.30;96.70;;;;;;5063070;28;20090;-74
2023/02/21 07:08:56;;;;;;;14.85;12.57;;;12.20;96.70;;;;;;5062223;28;20829;-75
2023/02/21 07:11:26;;;;;;;13.60;10.90;;;12.10;96.70;;;;;;5042967;28;20603;-75
2023/02/21 07:13:55;;;;;;;14.98;11.63;;;12.10;96.70;;;;;;5028539;28;20059;-75
2023/02/21 07:16:23;;;;;;;14.82;12.57;;;12.10;96.70;;;;;;5045003;28;20041;-75
2023/02/21 07:18:53;;;;;;;14.43;11.18;;;12.10;96.70;;;;;;5045769;28;20040;-75
2023/02/21 07:21:21;;;;;;;13.90;10.45;;;12.10;96.70;;;;;;5053536;28;20406;-75
2023/02/21 07:23:49;;;;;;;19.45;12.73;;;12.20;96.70;;;;;;5045499;28;20628;-75
2023/02/21 07:26:17;;;;;;;20.80;13.18;;;12.20;96.70;;;;;;5059663;28;20576;-76
2023/02/21 07:28:47;;;;;;;21.70;14.50;;;12.20;96.70;;;;;;5057172;28;20135;-76
2023/02/21 07:31:16;;;;;;;23.45;14.52;;;12.30;96.70;;;;;;5060028;28;20049;-75
2023/02/21 07:33:46;;;;;;;17.98;12.85;;;12.40;96.70;;;;;;5042613;28;20044;-75
2023/02/21 07:36:15;;;;;;;21.30;12.93;;;12.40;96.70;;;;;;5040608;28;20063;-75
2023/02/21 07:38:43;;;;;;;18.67;12.43;;;12.40;96.70;;;;;;5060527;28;20040;-76
2023/02/21 07:41:13;;;;;;;17.27;12.48;;;12.50;96.70;;;;;;5045200;28;20763;-76
2023/02/21 07:43:41;;;;;;;20.45;12.20;;;12.50;96.70;;;;;;5042831;28;20098;-76
2023/02/21 07:46:10;;;;;;;16.38;12.02;;;12.60;96.70;;;;;;5053551;28;20399;-76
2023/02/21 07:48:38;;;;;;;14.65;11.65;;;12.60;96.70;;;;;;5042135;28;20044;-76
2023/02/21 07:51:06;;;;;;;19.73;11.50;;;12.60;96.70;;;;;;5056484;28;20434;-74
2023/02/21 07:53:56;;;;;;;18.63;11.80;;;12.50;96.70;;;;;;5034581;28;20657;-76
2023/02/21 07:56:24;;;;;;;14.88;10.70;;;12.50;96.70;;;;;;5038450;28;20040;-75
2023/02/21 07:58:52;;;;;;;14.13;10.75;;;12.50;96.70;;;;;;5036842;28;20428;-73
2023/02/21 08:01:21;;;;;;;13.93;10.60;;;12.50;96.70;;;;;;5054153;28;20547;-73
2023/02/21 08:03:49;;;;;;;12.93;10.93;;;12.50;96.70;;;;;;5030777;28;20059;-74
2023/02/21 08:06:17;;;;;;;17.38;10.48;;;12.60;96.70;;;;;;5035641;28;20037;-74
2023/02/21 08:08:46;;;;;;;14.77;10.65;;;12.60;96.70;;;;;;5031818;28;20045;-74
2023/02/21 08:11:14;;;;;;;15.52;10.75;;;12.60;96.70;;;;;;5036728;28;20040;-75
2023/02/21 08:13:42;;;;;;;13.23;10.07;;;12.60;96.70;;;;;;5040151;28;20041;-76
2023/02/21 08:16:10;;;;;;;13.13;10.00;;;12.60;96.70;;;;;;5037139;28;20052;-75
2023/02/21 08:18:38;;;;;;;14.70;10.50;;;12.70;96.70;;;;;;5038795;28;20056;-74
2023/02/21 08:21:09;;;;;;;14.70;11.00;;;12.70;96.70;;;;;;5034563;28;20417;-75
2023/02/21 08:23:37;;;;;;;16.80;11.32;;;12.70;96.70;;;;;;5036208;28;20100;-75
2023/02/21 08:26:06;;;;;;;15.32;12.15;;;12.70;96.70;;;;;;5033650;28;20037;-75
2023/02/21 08:28:36;;;;;;;13.80;11.38;;;12.70;96.70;;;;;;5041413;28;20049;-74
2023/02/21 08:31:06;;;;;;;16.15;12.27;;;12.80;96.70;;;;;;5013986;28;20041;-74
2023/02/21 08:33:34;;;;;;;15.63;13.07;;;12.80;96.70;;;;;;5035312;28;20045;-75
2023/02/21 08:36:02;;;;;;;16.02;12.73;;;12.80;96.70;;;;;;5033737;28;20515;-75
2023/02/21 08:38:30;;;;;;;16.45;13.68;;;12.80;96.70;;;;;;5042096;28;20131;-75
2023/02/21 08:40:58;;;;;;;18.85;13.63;;;12.90;96.70;;;;;;5040639;28;20481;-74
2023/02/21 08:43:28;;;;;;;16.58;12.85;;;12.90;96.70;;;;;;5040979;28;20049;-75
2023/02/21 08:45:56;;;;;;;17.25;12.18;;;12.90;96.70;;;;;;5007775;28;20049;-76
2023/02/21 08:48:24;;;;;;;17.50;13.80;;;12.90;96.70;;;;;;5031009;28;20052;-75
2023/02/21 08:50:52;;;;;;;17.65;13.93;;;13.00;96.70;;;;;;5041277;28;20037;-74
2023/02/21 08:53:20;;;;;;;21.35;15.82;;;13.00;96.70;;;;;;5032654;28;20048;-74
2023/02/21 08:55:48;;;;;;;19.00;13.70;;;13.00;96.70;;;;;;5038408;28;20072;-76
2023/02/21 08:58:16;;;;;;;17.63;12.82;;;13.00;96.70;;;;;;5033044;28;20385;-76
2023/02/21 09:00:46;;;;;;;20.13;13.85;;;13.10;96.70;;;;;;5027576;28;20045;-76
2023/02/21 09:04:38;;;;;;;17.63;12.02;;;13.10;96.70;;;;;;5116011;27;20395;-76
2023/02/21 09:07:07;;;;;;;14.80;12.73;;;13.10;96.70;;;;;;5111895;28;20044;-75
2023/02/21 09:09:36;;;;;;;14.20;12.60;;;13.10;96.70;;;;;;5117954;27;20075;-76
2023/02/21 09:12:07;;;;;;;14.35;12.35;;;13.10;96.70;;;;;;5074220;28;20390;-77
2023/02/21 09:14:35;;;;;;;15.95;12.23;;;13.10;96.70;;;;;;5091006;28;20130;-75
2023/02/21 09:17:04;;;;;;;18.52;12.65;;;13.10;96.70;;;;;;5110065;28;20519;-76
2023/02/21 09:19:32;;;;;;;15.50;12.18;;;13.10;96.70;;;;;;5115397;27;20558;-76
2023/02/21 09:22:03;;;;;;;14.68;11.32;;;13.20;96.70;;;;;;5101602;28;20036;-76
2023/02/21 09:24:31;;;;;;;15.90;12.05;;;13.20;96.70;;;;;;5098552;28;20043;-78
2023/02/21 09:27:01;;;;;;;12.98;10.77;;;13.10;96.70;;;;;;5101686;28;20046;-77
2023/02/21 09:29:30;;;;;;;16.10;11.25;;;13.10;96.70;;;;;;5112951;27;20512;-75
2023/02/21 09:32:12;;;;;;;18.85;11.40;;;13.10;96.70;;;;;;5111802;28;20071;-78
2023/02/21 09:34:40;;;;;;;15.05;11.57;;;13.10;96.70;;;;;;5109774;27;20039;-77
2023/02/21 09:37:52;;;;;;;14.93;11.05;;;13.20;96.70;;;;;;5110686;28;20085;-78
2023/02/21 09:40:31;;;;;;;14.45;10.35;;;13.20;96.70;;;;;;5099645;28;20226;-78
2023/02/21 09:43:02;;;;;;;15.77;11.20;;;13.20;96.70;;;;;;5114679;27;20726;-78
2023/02/21 09:45:33;;;;;;;13.32;10.43;;;13.20;96.70;;;;;;5112521;27;20119;-78
2023/02/21 09:48:06;;;;;;;14.82;10.10;;;13.30;96.70;;;;;;5100658;28;20113;-78
2023/02/21 09:50:41;;;;;;;13.38;10.88;;;13.20;96.70;;;;;;5093510;28;20052;-77
2023/02/21 09:53:13;;;;;;;15.70;10.75;;;13.30;96.70;;;;;;5099646;28;20043;-77
2023/02/21 09:55:43;;;;;;;15.90;10.43;;;13.30;96.70;;;;;;5110535;28;20056;-76
2023/02/21 09:58:13;;;;;;;14.70;11.82;;;13.30;96.70;;;;;;5099523;28;20158;-76
2023/02/21 10:00:41;;;;;;;16.02;11.48;;;13.30;96.70;;;;;;5099974;28;20048;-76
2023/02/21 10:03:33;;;;;;;15.63;11.07;;;13.40;96.70;;;;;;5105458;28;20055;-75
2023/02/21 10:06:09;;;;;;;14.27;11.50;;;13.40;96.70;;;;;;5108598;28;20069;-74
2023/02/21 10:08:45;;;;;;;13.75;10.40;;;13.40;96.70;;;;;;5118850;27;20047;-75
2023/02/21 10:11:26;;;;;;;17.33;11.90;;;13.40;96.70;;;;;;5118288;28;20050;-75
2023/02/21 10:14:01;;;;;;;14.43;11.00;;;13.40;96.70;;;;;;5102331;28;20051;-75
2023/02/21 10:16:36;;;;;;;15.45;10.65;;;13.30;96.70;;;;;;5104112;28;20043;-74
2023/02/21 10:19:13;;;;;;;15.68;11.35;;;13.40;96.70;;;;;;5081903;28;20097;-75
2023/02/21 10:21:43;;;;;;;14.00;10.57;;;13.40;96.70;;;;;;5103858;28;20043;-77
2023/02/21 10:24:13;;;;;;;14.90;10.15;;;13.40;96.70;;;;;;5089446;28;20093;-76
2023/02/21 10:26:47;;;;;;;13.32;9.63;;;13.50;96.70;;;;;;5103721;28;20036;-75
2023/02/21 10:29:21;;;;;;;12.13;8.82;;;13.60;96.70;;;;;;5090677;28;20049;-75
2023/02/21 10:31:53;;;;;;;12.98;9.45;;;13.60;96.70;;;;;;5095024;28;20047;-75
2023/02/21 10:34:26;;;;;;;12.73;10.32;;;13.60;96.70;;;;;;5078000;28;20628;-76
2023/02/21 10:36:55;;;;;;;14.05;10.35;;;13.60;96.70;;;;;;5074361;28;20044;-76
2023/02/21 10:39:31;;;;;;;14.48;10.05;;;13.60;96.70;;;;;;5077332;28;20036;-77
2023/02/21 10:42:01;;;;;;;14.80;11.07;;;13.60;96.70;;;;;;5094396;28;20048;-75
2023/02/21 10:44:32;;;;;;;16.15;13.10;;;13.60;96.70;;;;;;5103310;28;20067;-76
2023/02/21 10:47:04;;;;;;;15.98;12.15;;;13.60;96.70;;;;;;5085543;28;20059;-75
2023/02/21 10:49:38;;;;;;;17.50;13.00;;;13.60;96.70;;;;;;5095063;28;20098;-76
2023/02/21 10:52:11;;;;;;;15.10;11.70;;;13.60;96.70;;;;;;5094826;28;20040;-76
2023/02/21 10:54:39;;;;;;;13.38;9.98;;;13.60;96.70;;;;;;5104093;28;20497;-76
2023/02/21 10:57:15;;;;;;;13.07;8.15;;;13.60;96.70;;;;;;5076910;28;20437;-77
2023/02/21 10:59:46;;;;;;;10.27;8.27;;;13.60;96.70;;;;;;5092141;28;20072;-76
2023/02/21 11:02:32;;;;;;;10.68;8.65;;;13.60;96.70;;;;;;5092120;28;20064;-75
2023/02/21 11:05:15;;;;;;;11.93;9.25;;;13.70;96.70;;;;;;5085528;28;20134;-75
2023/02/21 11:07:56;;;;;;;11.82;9.02;;;13.80;96.70;;;;;;5084639;28;20078;-75
2023/02/21 11:10:29;;;;;;;12.30;8.90;;;13.80;96.70;;;;;;5093309;28;20044;-74
2023/02/21 11:13:12;;;;;;;15.35;10.32;;;13.90;96.70;;;;;;5104442;28;20794;-74
2023/02/21 11:15:40;;;;;;;14.25;10.45;;;13.90;96.70;;;;;;5088460;28;20047;-75
2023/02/21 11:18:21;;;;;;;12.07;9.30;;;13.90;96.70;;;;;;5102956;28;20101;-75
2023/02/21 11:20:52;;;;;;;15.32;13.02;;;13.80;96.70;;;;;;5104611;27;20066;-75
2023/02/21 11:23:23;;;;;;;14.50;10.77;;;13.90;96.70;;;;;;5100112;28;20556;-76
2023/02/21 11:25:57;;;;;;;13.77;10.50;;;14.00;96.70;;;;;;5086514;28;20051;-76
2023/02/21 11:28:27;;;;;;;13.43;9.30;;;14.10;96.70;;;;;;5098287;28;20135;-75
2023/02/21 11:31:11;;;;;;;13.23;10.95;;;14.10;96.70;;;;;;5092496;28;20478;-75
2023/02/21 11:33:41;;;;;;;12.10;9.80;;;14.10;96.70;;;;;;5083097;28;20066;-75
2023/02/21 11:36:12;;;;;;;12.90;10.35;;;14.10;96.70;;;;;;5096761;28;20655;-75
2023/02/21 11:38:46;;;;;;;9.70;8.32;;;14.10;96.70;;;;;;5089960;28;20194;-75
2023/02/21 11:41:21;;;;;;;10.18;8.43;;;14.20;96.70;;;;;;5100870;28;20043;-75
2023/02/21 11:43:52;;;;;;;11.93;8.98;;;14.20;96.70;;;;;;5094351;28;20048;-74
2023/02/21 11:46:31;;;;;;;9.88;8.18;;;14.20;96.70;;;;;;5102088;28;20447;-75
2023/02/21 11:49:04;;;;;;;11.73;8.48;;;14.30;96.70;;;;;;5097959;28;20062;-75
2023/02/21 11:51:38;;;;;;;10.48;7.60;;;14.30;96.70;;;;;;5099431;28;20055;-75
2023/02/21 11:54:06;;;;;;;12.07;8.80;;;14.30;96.70;;;;;;5093317;28;20129;-75
2023/02/21 11:56:46;;;;;;;10.35;7.65;;;14.30;96.70;;;;;;5084841;28;20109;-75
2023/02/21 11:59:33;;;;;;;8.70;7.07;;;14.30;96.70;;;;;;5101793;28;20116;-75
2023/02/21 12:02:38;;;;;;;7.93;7.07;;;14.30;96.70;;;;;;5096887;28;20059;-75
2023/02/21 12:05:24;;;;;;;11.30;7.78;;;14.30;96.70;;;;;;5098869;28;20051;-75
2023/02/21 12:08:03;;;;;;;12.65;8.77;;;14.30;96.70;;;;;;5086118;28;20152;-75
2023/02/21 12:10:42;;;;;;;8.50;6.88;;;14.40;96.70;;;;;;5090018;28;20103;-76
2023/02/21 12:13:21;;;;;;;16.20;11.40;;;14.40;96.70;;;;;;5098734;28;20047;-75
2023/02/21 12:16:00;;;;;;;12.93;9.15;;;14.40;96.70;;;;;;5086712;28;20044;-75
2023/02/21 12:18:45;;;;;;;9.75;8.32;;;14.40;96.70;;;;;;5099176;28;20453;-75
2023/02/21 12:21:37;;;;;;;11.13;8.20;;;14.40;96.70;;;;;;5096125;28;20040;-75
2023/02/21 12:24:29;;;;;;;10.73;7.85;;;14.50;96.70;;;;;;5102685;28;20078;-76
2023/02/21 12:27:03;;;;;;;10.30;8.55;;;14.50;96.70;;;;;;5092164;28;20116;-75
2023/02/21 12:29:47;;;;;;;10.55;8.52;;;14.40;96.70;;;;;;5081184;28;20420;-76
2023/02/21 12:32:42;;;;;;;27.42;19.15;;;14.50;96.70;;;;;;5098134;28;20039;-77
2023/02/21 12:36:01;;;;;;;20.42;15.10;;;14.50;96.70;;;;;;5095630;28;20144;-76
2023/02/21 12:38:36;;;;;;;12.10;10.25;;;14.60;96.70;;;;;;5090601;28;20052;-77
2023/02/21 12:41:19;;;;;;;11.45;9.20;;;14.60;96.70;;;;;;5093123;28;20113;-76
2023/02/21 12:43:55;;;;;;;11.35;8.85;;;14.60;96.70;;;;;;5095480;28;20059;-76
2023/02/21 12:46:30;;;;;;;12.55;8.85;;;14.70;96.70;;;;;;5087007;28;20043;-78
2023/02/21 12:49:05;;;;;;;13.65;9.52;;;14.70;96.70;;;;;;5089225;28;20117;-75
2023/02/21 12:51:40;;;;;;;13.20;10.15;;;14.70;96.70;;;;;;5098877;28;20595;-78
2023/02/21 12:54:13;;;;;;;12.07;9.82;;;14.70;96.70;;;;;;5085714;28;20047;-76
2023/02/21 12:56:48;;;;;;;10.98;8.50;;;14.70;96.70;;;;;;5082021;28;20142;-76
2023/02/21 12:59:23;;;;;;;10.55;8.30;;;14.60;96.70;;;;;;5086419;28;20052;-76
2023/02/21 13:01:55;;;;;;;10.18;7.80;;;14.60;96.70;;;;;;5107033;28;20043;-75
2023/02/21 13:04:37;;;;;;;13.35;7.85;;;14.60;96.70;;;;;;5095653;28;20167;-76
2023/02/21 13:07:17;;;;;;;11.13;7.90;;;14.50;96.70;;;;;;5101340;28;20044;-76
2023/02/21 13:09:58;;;;;;;25.05;18.85;;;14.50;96.70;;;;;;5075566;28;20572;-76
2023/02/21 13:12:34;;;;;;;18.30;12.93;;;14.50;96.70;;;;;;5100553;28;20413;-75
2023/02/21 13:15:15;;;;;;;12.02;8.77;;;14.50;96.70;;;;;;5089983;28;20491;-76
2023/02/21 13:17:48;;;;;;;10.65;7.70;;;14.50;96.70;;;;;;5092142;28;20151;-77
2023/02/21 13:20:21;;;;;;;10.10;8.13;;;14.50;96.70;;;;;;5100221;28;20112;-76
2023/02/21 13:23:39;;;;;;;13.88;10.65;;;14.50;96.70;;;;;;5090914;28;20074;-77
2023/02/21 13:26:39;;;;;;;11.82;10.45;;;14.50;96.70;;;;;;5081510;28;20057;-75
2023/02/21 13:29:17;;;;;;;13.77;11.10;;;14.50;96.70;;;;;;5103257;28;20117;-76
2023/02/21 13:31:45;;;;;;;11.88;8.50;;;14.50;96.70;;;;;;5088354;28;20122;-76
2023/02/21 13:34:19;;;;;;;10.98;8.20;;;14.40;96.70;;;;;;5101014;28;20691;-75
2023/02/21 13:36:50;;;;;;;10.70;8.35;;;14.40;96.70;;;;;;5088157;28;20134;-76
2023/02/21 13:39:30;;;;;;;12.38;8.75;;;14.40;96.70;;;;;;5089751;28;20040;-76
2023/02/21 13:42:39;;;;;;;8.52;6.03;;;14.40;96.70;;;;;;5097538;28;20071;-76
2023/02/21 13:45:15;;;;;;;8.35;5.68;;;14.40;96.70;;;;;;5088071;28;20501;-76
2023/02/21 13:48:18;;;;;;;6.80;5.68;;;14.40;96.70;;;;;;5086804;28;20047;-76
2023/02/21 13:50:48;;;;;;;10.45;8.07;;;14.40;96.70;;;;;;5100764;28;20439;-75
2023/02/21 13:53:19;;;;;;;7.63;5.20;;;14.40;96.70;;;;;;5093875;28;20138;-76
2023/02/21 13:56:12;;;;;;;7.45;6.43;;;14.30;96.70;;;;;;5095379;28;20043;-76
2023/02/21 13:58:43;;;;;;;7.40;6.13;;;14.30;96.70;;;;;;5089300;28;20130;-77
2023/02/21 14:01:40;;;;;;;8.52;5.30;;;14.30;96.70;;;;;;5066705;28;20067;-77
2023/02/21 14:04:53;;;;;;;8.75;6.50;;;14.30;96.70;;;;;;5092359;28;20378;-76
2023/02/21 14:07:42;;;;;;;9.80;7.55;;;14.30;96.70;;;;;;5094333;28;20055;-77
2023/02/21 14:10:33;;;;;;;9.02;6.45;;;14.30;96.70;;;;;;5102721;28;20055;-76
2023/02/21 14:13:04;;;;;;;9.82;6.65;;;14.20;96.70;;;;;;5102336;28;20808;-76
2023/02/21 14:15:44;;;;;;;8.60;6.88;;;14.20;96.70;;;;;;5093150;28;20052;-76
2023/02/21 14:18:23;;;;;;;8.55;7.35;;;14.20;96.70;;;;;;5104019;28;20500;-76
2023/02/21 14:21:15;;;;;;;9.38;6.80;;;14.20;96.70;;;;;;5100019;28;20048;-76
2023/02/21 14:23:48;;;;;;;8.93;6.95;;;14.10;96.70;;;;;;5084825;28;20542;-76
2023/02/21 14:26:40;;;;;;;9.27;6.45;;;14.10;96.70;;;;;;5105713;28;20093;-75
2023/02/21 14:29:32;;;;;;;8.35;6.40;;;14.00;96.70;;;;;;5089702;28;20113;-76
2023/02/21 14:32:31;;;;;;;16.77;6.93;;;14.00;96.70;;;;;;5081837;28;20048;-76
2023/02/21 14:35:01;;;;;;;8.68;5.68;;;14.00;96.70;;;;;;5101637;28;20044;-73
2023/02/21 14:37:34;;;;;;;7.80;5.80;;;14.10;96.70;;;;;;5099920;28;20473;-73
2023/02/21 14:40:18;;;;;;;9.68;6.40;;;14.00;96.70;;;;;;5096397;28;20420;-74
2023/02/21 14:43:01;;;;;;;11.68;6.53;;;14.00;96.70;;;;;;5105057;28;20438;-73
2023/02/21 14:45:38;;;;;;;10.45;6.18;;;14.00;96.70;;;;;;5098276;28;20051;-73
2023/02/21 14:48:38;;;;;;;15.65;8.10;;;13.90;96.70;;;;;;5105718;28;20683;-73
2023/02/21 14:51:43;;;;;;;11.73;7.28;;;13.90;96.70;;;;;;5079997;28;20129;-73
2023/02/21 14:54:46;;;;;;;13.95;9.50;;;13.90;96.70;;;;;;5089032;28;20393;-73
2023/02/21 14:57:41;;;;;;;13.57;8.13;;;13.90;96.70;;;;;;5091466;28;20054;-73
2023/02/21 15:00:20;;;;;;;16.23;10.73;;;13.90;96.70;;;;;;5087373;28;20134;-73
2023/02/21 15:03:08;;;;;;;20.15;12.82;;;13.90;96.70;;;;;;5091584;28;20058;-73
2023/02/21 15:05:44;;;;;;;15.10;10.25;;;13.90;96.70;;;;;;5103293;28;20726;-73
2023/02/21 15:08:16;;;;;;;15.20;9.20;;;13.90;96.70;;;;;;5085109;28;20512;-72
2023/02/21 15:10:45;;;;;;;17.42;10.63;;;13.90;96.70;;;;;;5087989;28;20143;-73
2023/02/21 15:13:22;;;;;;;20.05;13.70;;;13.90;96.70;;;;;;5102971;28;20077;-73
2023/02/21 15:15:56;;;;;;;;;;;13.90;96.70;;;;;;5072532;28;20420;-73
2023/02/21 15:18:26;;;;;;;12.70;9.13;;;13.90;96.70;;;;;;5093914;28;20358;-73
2023/02/21 15:21:07;;;;;;;12.35;8.60;;;13.80;96.70;;;;;;5077716;28;20463;-73
2023/02/21 15:23:36;;;;;;;10.15;7.95;;;13.70;96.70;;;;;;5102940;28;20047;-72
2023/02/21 15:26:18;;;;;;;14.60;9.02;;;13.60;96.70;;;;;;5103028;28;20159;-73
2023/02/21 15:28:46;;;;;;;15.40;9.32;;;13.60;96.70;;;;;;5093799;28;20100;-73